ADDS METAR Data INFO
IDs: Format: Raw Decoded Include TAF

Data at: 1847 UTC 17 Oct 2017

KMIW 171753Z AUTO 22016G20KT 10SM CLR 21/07 A3008 RMK AO2 SLP183 T02060067 10206 20094 58016
KMIW 171653Z AUTO 23012KT 10SM CLR 18/07 A3011 RMK AO2 SLP194 T01830072
KMIW 171553Z AUTO 23013KT 10SM CLR 16/07 A3012 RMK AO2 SLP200 T01610067
KMIW 171453Z AUTO 23014G18KT 10SM CLR 14/06 A3012 RMK AO2 SLP201 T01390061 53003
KMIW 171353Z AUTO 22008KT 10SM CLR 11/06 A3012 RMK AO2 SLP202 T01110056
KMIW 171253Z AUTO 20007KT 10SM CLR 09/05 A3011 RMK AO2 SLP198 T00940050
KMIW 171153Z AUTO 21007KT 10SM CLR 09/05 A3012 RMK AO2 SLP199 T00940050 10128 20089 52005
KMIW 171053Z AUTO 21007KT 10SM CLR 10/05 A3011 RMK AO2 SLP196 T01000050
KMIW 170953Z AUTO 21007KT 10SM CLR 10/05 A3010 RMK AO2 SLP194 T01000050
KMIW 170853Z AUTO 21008KT 10SM CLR 11/05 A3010 RMK AO2 SLP192 T01060050 50001
KMIW 170753Z AUTO 22008KT 10SM CLR 11/05 A3011 RMK AO2 SLP194 T01110050
KMIW 170653Z AUTO 22011KT 10SM CLR 12/05 A3010 RMK AO2 SLP193 T01220050
KMIW 170553Z AUTO 21012G21KT 10SM CLR 13/05 A3010 RMK AO2 SLP191 T01280050 10144 20111 401890006 58013
KMIW 170453Z AUTO 20013KT 10SM CLR 13/04 A3011 RMK AO2 SLP197 T01330044
KMIW 170353Z AUTO 20010KT 10SM CLR 13/04 A3013 RMK AO2 SLP204 T01330039
KMIW 170253Z AUTO 19009KT 10SM CLR 12/04 A3013 RMK AO2 SLP207 T01220039 55002
KMIW 170153Z AUTO 18006KT 10SM CLR 11/03 A3013 RMK AO2 SLP208 T01110033
KMIW 170053Z AUTO 16007KT 10SM CLR 13/04 A3013 RMK AO2 SLP210 T01280039
KMIW 162353Z AUTO 18007KT 10SM CLR 14/03 A3014 RMK AO2 SLP211 T01440028 10189 20144 56015
KMIW 162253Z AUTO 19010KT 10SM CLR 18/03 A3014 RMK AO2 SLP210 T01780028
KMIW 162153Z AUTO 21011KT 10SM CLR 19/02 A3016 RMK AO2 SLP215 T01890022
KMIW 162053Z AUTO 22011KT 10SM CLR 19/03 A3018 RMK AO2 SLP224 T01890033 56031
KMIW 161953Z AUTO 25012G19KT 10SM CLR 19/02 A3020 RMK AO2 SLP231 T01890022
KMIW 161853Z AUTO 21012G19KT 10SM CLR 18/02 A3024 RMK AO2 SLP242 T01830022
KMIW 161753Z AUTO 25011G16KT 10SM CLR 18/02 A3028 RMK AO2 SLP256 T01780017 10178 20006 58013
KMIW 161653Z AUTO 24008KT 10SM CLR 16/03 A3030 RMK AO2 SLP264 T01560028
KMIW 161553Z AUTO 23007KT 10SM CLR 13/06 A3031 RMK AO2 SLP268 T01280061
KMIW 161453Z AUTO 23004KT 10SM CLR 09/05 A3032 RMK AO2 SLP272 T00890050 53004
KMIW 161353Z AUTO 25005KT 10SM CLR 04/03 A3031 RMK AO2 SLP271 T00440028
KMIW 161253Z AUTO 23003KT 10SM CLR 01/01 A3030 RMK AO2 SLP268 T00110006
KMIW 161153Z AUTO 00000KT 10SM CLR 01/00 A3030 RMK AO2 SLP270 T00110000 10044 20006 51010
KMIW 161053Z AUTO 00000KT 10SM CLR 02/01 A3030 RMK AO2 SLP267 T00220006
KMIW 160953Z AUTO 24003KT 10SM CLR 02/01 A3029 RMK AO2 SLP260 T00170006
KMIW 160853Z AUTO 00000KT 10SM CLR 03/01 A3027 RMK AO2 SLP256 T00280011 58000
KMIW 160753Z AUTO 27003KT 10SM CLR 03/01 A3028 RMK AO2 SLP258 T00330011
KMIW 160653Z AUTO 26005KT 10SM CLR 04/02 A3028 RMK AO2 SLP256 T00440017